sensor_id;sensor_type;location;lat;lon;timestamp;P1;durP1;ratioP1;P2;durP2;ratioP2
14939;SDS011;11825;51.898;8.202;2023-08-17T00:00:32;3.23;;;1.97;;
14939;SDS011;11825;51.898;8.202;2023-08-17T00:06:21;2.87;;;2.27;;
14939;SDS011;11825;51.898;8.202;2023-08-17T00:11:45;1.80;;;1.70;;
14939;SDS011;11825;51.898;8.202;2023-08-17T00:17:14;2.90;;;2.60;;
14939;SDS011;11825;51.898;8.202;2023-08-17T00:22:43;4.00;;;2.33;;
14939;SDS011;11825;51.898;8.202;2023-08-17T00:28:51;12.43;;;4.73;;
14939;SDS011;11825;51.898;8.202;2023-08-17T00:35:05;6.17;;;3.67;;
14939;SDS011;11825;51.898;8.202;2023-08-17T00:51:30;9.10;;;3.00;;
14939;SDS011;11825;51.898;8.202;2023-08-17T00:57:17;4.70;;;3.90;;
14939;SDS011;11825;51.898;8.202;2023-08-17T01:03:05;6.00;;;3.10;;
14939;SDS011;11825;51.898;8.202;2023-08-17T01:08:08;3.13;;;2.73;;
14939;SDS011;11825;51.898;8.202;2023-08-17T01:13:11;7.47;;;4.00;;
14939;SDS011;11825;51.898;8.202;2023-08-17T01:18:17;7.13;;;3.70;;
14939;SDS011;11825;51.898;8.202;2023-08-17T01:23:26;10.57;;;3.73;;
14939;SDS011;11825;51.898;8.202;2023-08-17T01:28:28;8.03;;;3.83;;
14939;SDS011;11825;51.898;8.202;2023-08-17T01:33:48;6.40;;;3.40;;
14939;SDS011;11825;51.898;8.202;2023-08-17T01:38:53;5.10;;;3.67;;
14939;SDS011;11825;51.898;8.202;2023-08-17T01:43:56;4.10;;;3.70;;
14939;SDS011;11825;51.898;8.202;2023-08-17T01:48:59;3.67;;;3.00;;
14939;SDS011;11825;51.898;8.202;2023-08-17T01:54:01;6.40;;;4.07;;
14939;SDS011;11825;51.898;8.202;2023-08-17T01:59:02;4.57;;;3.17;;
14939;SDS011;11825;51.898;8.202;2023-08-17T02:04:04;4.07;;;2.70;;
14939;SDS011;11825;51.898;8.202;2023-08-17T02:09:08;6.67;;;3.73;;
14939;SDS011;11825;51.898;8.202;2023-08-17T02:14:17;3.77;;;3.30;;
14939;SDS011;11825;51.898;8.202;2023-08-17T02:19:19;3.73;;;3.13;;
14939;SDS011;11825;51.898;8.202;2023-08-17T02:24:21;5.83;;;4.00;;
14939;SDS011;11825;51.898;8.202;2023-08-17T02:29:24;5.63;;;4.03;;
14939;SDS011;11825;51.898;8.202;2023-08-17T02:34:26;8.77;;;4.43;;
14939;SDS011;11825;51.898;8.202;2023-08-17T02:39:28;8.70;;;5.93;;
14939;SDS011;11825;51.898;8.202;2023-08-17T02:44:30;9.40;;;6.30;;
14939;SDS011;11825;51.898;8.202;2023-08-17T02:49:32;6.37;;;4.50;;
14939;SDS011;11825;51.898;8.202;2023-08-17T02:54:38;7.57;;;4.23;;
14939;SDS011;11825;51.898;8.202;2023-08-17T02:59:42;6.57;;;3.70;;
14939;SDS011;11825;51.898;8.202;2023-08-17T03:04:44;4.23;;;3.80;;
14939;SDS011;11825;51.898;8.202;2023-08-17T03:09:49;4.73;;;4.23;;
14939;SDS011;11825;51.898;8.202;2023-08-17T03:14:53;5.90;;;4.17;;
14939;SDS011;11825;51.898;8.202;2023-08-17T03:20:05;4.63;;;3.43;;
14939;SDS011;11825;51.898;8.202;2023-08-17T03:25:08;6.17;;;3.87;;
14939;SDS011;11825;51.898;8.202;2023-08-17T03:30:12;4.57;;;3.67;;
14939;SDS011;11825;51.898;8.202;2023-08-17T03:35:16;9.03;;;4.50;;
14939;SDS011;11825;51.898;8.202;2023-08-17T03:40:24;4.63;;;4.23;;
14939;SDS011;11825;51.898;8.202;2023-08-17T03:45:26;5.13;;;4.27;;
14939;SDS011;11825;51.898;8.202;2023-08-17T03:50:28;4.57;;;3.50;;
14939;SDS011;11825;51.898;8.202;2023-08-17T03:55:30;7.20;;;4.53;;
14939;SDS011;11825;51.898;8.202;2023-08-17T04:00:32;9.23;;;5.10;;
14939;SDS011;11825;51.898;8.202;2023-08-17T04:05:33;6.87;;;4.37;;
14939;SDS011;11825;51.898;8.202;2023-08-17T04:10:35;9.17;;;4.87;;
14939;SDS011;11825;51.898;8.202;2023-08-17T04:15:37;4.67;;;4.27;;
14939;SDS011;11825;51.898;8.202;2023-08-17T04:20:39;5.57;;;5.00;;
14939;SDS011;11825;51.898;8.202;2023-08-17T04:25:41;8.80;;;4.70;;
14939;SDS011;11825;51.898;8.202;2023-08-17T04:30:44;4.73;;;4.33;;
14939;SDS011;11825;51.898;8.202;2023-08-17T04:35:47;5.10;;;4.70;;
14939;SDS011;11825;51.898;8.202;2023-08-17T04:40:49;5.00;;;4.50;;
14939;SDS011;11825;51.898;8.202;2023-08-17T04:45:51;4.53;;;4.10;;
14939;SDS011;11825;51.898;8.202;2023-08-17T04:50:53;4.40;;;3.90;;
14939;SDS011;11825;51.898;8.202;2023-08-17T04:55:54;5.80;;;5.23;;
14939;SDS011;11825;51.898;8.202;2023-08-17T05:00:56;5.07;;;4.57;;
14939;SDS011;11825;51.898;8.202;2023-08-17T05:05:58;9.87;;;5.53;;
14939;SDS011;11825;51.898;8.202;2023-08-17T05:11:03;9.77;;;4.27;;
14939;SDS011;11825;51.898;8.202;2023-08-17T05:16:05;4.37;;;3.93;;
14939;SDS011;11825;51.898;8.202;2023-08-17T05:21:09;5.47;;;4.50;;
14939;SDS011;11825;51.898;8.202;2023-08-17T05:26:13;6.73;;;4.73;;
14939;SDS011;11825;51.898;8.202;2023-08-17T05:31:16;5.27;;;4.20;;
14939;SDS011;11825;51.898;8.202;2023-08-17T05:36:19;5.37;;;4.63;;
14939;SDS011;11825;51.898;8.202;2023-08-17T05:41:21;6.13;;;4.67;;
14939;SDS011;11825;51.898;8.202;2023-08-17T05:46:22;6.23;;;4.30;;
14939;SDS011;11825;51.898;8.202;2023-08-17T05:51:24;9.53;;;5.40;;
14939;SDS011;11825;51.898;8.202;2023-08-17T05:56:26;4.43;;;4.03;;
14939;SDS011;11825;51.898;8.202;2023-08-17T06:01:29;7.37;;;4.30;;
14939;SDS011;11825;51.898;8.202;2023-08-17T06:06:33;8.33;;;5.17;;
14939;SDS011;11825;51.898;8.202;2023-08-17T06:11:35;6.30;;;5.00;;
14939;SDS011;11825;51.898;8.202;2023-08-17T06:16:38;8.70;;;4.70;;
14939;SDS011;11825;51.898;8.202;2023-08-17T06:21:40;7.43;;;6.03;;
14939;SDS011;11825;51.898;8.202;2023-08-17T06:26:43;15.27;;;5.67;;
14939;SDS011;11825;51.898;8.202;2023-08-17T06:31:46;6.70;;;5.63;;
14939;SDS011;11825;51.898;8.202;2023-08-17T06:37:01;7.60;;;6.20;;
14939;SDS011;11825;51.898;8.202;2023-08-17T06:42:05;8.87;;;7.37;;
14939;SDS011;11825;51.898;8.202;2023-08-17T06:47:07;10.63;;;6.60;;
14939;SDS011;11825;51.898;8.202;2023-08-17T06:52:10;9.33;;;7.20;;
14939;SDS011;11825;51.898;8.202;2023-08-17T06:57:17;10.00;;;7.20;;
14939;SDS011;11825;51.898;8.202;2023-08-17T07:02:24;9.53;;;6.33;;
14939;SDS011;11825;51.898;8.202;2023-08-17T07:07:39;9.33;;;6.70;;
14939;SDS011;11825;51.898;8.202;2023-08-17T07:12:43;7.87;;;7.20;;
14939;SDS011;11825;51.898;8.202;2023-08-17T07:17:48;11.83;;;7.67;;
14939;SDS011;11825;51.898;8.202;2023-08-17T07:22:53;9.40;;;8.10;;
14939;SDS011;11825;51.898;8.202;2023-08-17T07:27:55;9.83;;;7.50;;
14939;SDS011;11825;51.898;8.202;2023-08-17T07:33:01;9.07;;;7.27;;
14939;SDS011;11825;51.898;8.202;2023-08-17T07:38:04;8.47;;;7.13;;
14939;SDS011;11825;51.898;8.202;2023-08-17T07:43:10;9.53;;;7.67;;
14939;SDS011;11825;51.898;8.202;2023-08-17T07:48:14;10.73;;;8.07;;
14939;SDS011;11825;51.898;8.202;2023-08-17T07:53:19;11.40;;;8.00;;
14939;SDS011;11825;51.898;8.202;2023-08-17T07:58:25;8.03;;;7.27;;
14939;SDS011;11825;51.898;8.202;2023-08-17T08:03:29;11.03;;;8.77;;
14939;SDS011;11825;51.898;8.202;2023-08-17T08:08:32;10.13;;;8.10;;
14939;SDS011;11825;51.898;8.202;2023-08-17T08:13:36;15.00;;;9.13;;
14939;SDS011;11825;51.898;8.202;2023-08-17T08:18:41;11.43;;;8.80;;
14939;SDS011;11825;51.898;8.202;2023-08-17T08:23:47;8.90;;;8.10;;
14939;SDS011;11825;51.898;8.202;2023-08-17T08:28:56;9.93;;;8.80;;
14939;SDS011;11825;51.898;8.202;2023-08-17T08:34:04;9.17;;;7.77;;
14939;SDS011;11825;51.898;8.202;2023-08-17T08:39:08;9.83;;;8.90;;
14939;SDS011;11825;51.898;8.202;2023-08-17T08:44:14;8.40;;;7.60;;
14939;SDS011;11825;51.898;8.202;2023-08-17T08:49:28;8.77;;;7.87;;
14939;SDS011;11825;51.898;8.202;2023-08-17T08:54:44;10.43;;;9.17;;
14939;SDS011;11825;51.898;8.202;2023-08-17T08:59:59;14.97;;;8.67;;
14939;SDS011;11825;51.898;8.202;2023-08-17T09:05:15;9.13;;;8.33;;
14939;SDS011;11825;51.898;8.202;2023-08-17T09:10:21;9.83;;;7.70;;
14939;SDS011;11825;51.898;8.202;2023-08-17T09:15:28;9.07;;;7.83;;
14939;SDS011;11825;51.898;8.202;2023-08-17T09:20:36;12.13;;;8.47;;
14939;SDS011;11825;51.898;8.202;2023-08-17T09:25:48;10.43;;;8.80;;
14939;SDS011;11825;51.898;8.202;2023-08-17T09:30:57;10.57;;;9.37;;
14939;SDS011;11825;51.898;8.202;2023-08-17T09:36:02;9.17;;;8.20;;
14939;SDS011;11825;51.898;8.202;2023-08-17T09:41:07;9.17;;;8.27;;
14939;SDS011;11825;51.898;8.202;2023-08-17T09:46:12;12.07;;;9.50;;
14939;SDS011;11825;51.898;8.202;2023-08-17T09:51:30;11.53;;;8.50;;
14939;SDS011;11825;51.898;8.202;2023-08-17T09:56:43;13.97;;;10.40;;
14939;SDS011;11825;51.898;8.202;2023-08-17T10:01:53;14.00;;;12.43;;
14939;SDS011;11825;51.898;8.202;2023-08-17T10:07:03;17.67;;;11.50;;
14939;SDS011;11825;51.898;8.202;2023-08-17T10:12:15;12.13;;;10.50;;
14939;SDS011;11825;51.898;8.202;2023-08-17T10:17:19;12.20;;;10.83;;
14939;SDS011;11825;51.898;8.202;2023-08-17T10:22:31;15.53;;;11.40;;
14939;SDS011;11825;51.898;8.202;2023-08-17T10:27:47;12.83;;;11.17;;
14939;SDS011;11825;51.898;8.202;2023-08-17T10:32:51;10.47;;;9.30;;
14939;SDS011;11825;51.898;8.202;2023-08-17T10:38:01;10.70;;;9.00;;
14939;SDS011;11825;51.898;8.202;2023-08-17T10:43:10;10.87;;;8.73;;
14939;SDS011;11825;51.898;8.202;2023-08-17T10:48:27;10.40;;;9.50;;
14939;SDS011;11825;51.898;8.202;2023-08-17T10:53:38;9.17;;;8.27;;
14939;SDS011;11825;51.898;8.202;2023-08-17T10:58:46;9.43;;;8.63;;
14939;SDS011;11825;51.898;8.202;2023-08-17T11:04:08;10.70;;;9.77;;
14939;SDS011;11825;51.898;8.202;2023-08-17T11:09:16;10.73;;;9.57;;
14939;SDS011;11825;51.898;8.202;2023-08-17T11:14:23;11.73;;;10.63;;
14939;SDS011;11825;51.898;8.202;2023-08-17T11:19:28;10.97;;;9.70;;
14939;SDS011;11825;51.898;8.202;2023-08-17T11:24:30;12.67;;;10.77;;
14939;SDS011;11825;51.898;8.202;2023-08-17T11:29:45;13.03;;;11.07;;
14939;SDS011;11825;51.898;8.202;2023-08-17T11:40:03;12.60;;;10.27;;
14939;SDS011;11825;51.898;8.202;2023-08-17T11:45:14;12.30;;;10.70;;
14939;SDS011;11825;51.898;8.202;2023-08-17T11:50:18;11.40;;;10.27;;
14939;SDS011;11825;51.898;8.202;2023-08-17T11:55:21;12.03;;;10.83;;
14939;SDS011;11825;51.898;8.202;2023-08-17T12:00:25;11.20;;;9.93;;
14939;SDS011;11825;51.898;8.202;2023-08-17T12:05:36;12.90;;;10.73;;
14939;SDS011;11825;51.898;8.202;2023-08-17T12:10:39;12.80;;;11.53;;
14939;SDS011;11825;51.898;8.202;2023-08-17T12:15:43;12.67;;;11.23;;
14939;SDS011;11825;51.898;8.202;2023-08-17T12:20:53;10.83;;;9.30;;
14939;SDS011;11825;51.898;8.202;2023-08-17T12:25:58;11.57;;;10.47;;
14939;SDS011;11825;51.898;8.202;2023-08-17T12:31:03;12.47;;;10.37;;
14939;SDS011;11825;51.898;8.202;2023-08-17T12:36:10;11.40;;;10.27;;
14939;SDS011;11825;51.898;8.202;2023-08-17T12:41:26;10.60;;;9.60;;
14939;SDS011;11825;51.898;8.202;2023-08-17T12:46:31;11.40;;;10.30;;
14939;SDS011;11825;51.898;8.202;2023-08-17T12:51:35;9.37;;;8.47;;
14939;SDS011;11825;51.898;8.202;2023-08-17T12:56:46;9.13;;;8.10;;
14939;SDS011;11825;51.898;8.202;2023-08-17T13:01:50;8.27;;;7.63;;
14939;SDS011;11825;51.898;8.202;2023-08-17T13:06:55;8.03;;;7.23;;
14939;SDS011;11825;51.898;8.202;2023-08-17T13:11:59;9.23;;;8.40;;
14939;SDS011;11825;51.898;8.202;2023-08-17T13:17:02;8.00;;;7.03;;
14939;SDS011;11825;51.898;8.202;2023-08-17T13:22:11;8.97;;;7.83;;
14939;SDS011;11825;51.898;8.202;2023-08-17T13:27:18;9.00;;;7.80;;
14939;SDS011;11825;51.898;8.202;2023-08-17T13:32:25;8.33;;;7.63;;
14939;SDS011;11825;51.898;8.202;2023-08-17T13:37:38;10.13;;;8.03;;
14939;SDS011;11825;51.898;8.202;2023-08-17T13:42:42;8.13;;;7.37;;
14939;SDS011;11825;51.898;8.202;2023-08-17T13:47:48;9.57;;;8.07;;
14939;SDS011;11825;51.898;8.202;2023-08-17T13:52:51;10.90;;;9.80;;
14939;SDS011;11825;51.898;8.202;2023-08-17T13:57:53;10.77;;;8.63;;
14939;SDS011;11825;51.898;8.202;2023-08-17T14:03:00;10.13;;;9.13;;
14939;SDS011;11825;51.898;8.202;2023-08-17T14:08:08;10.93;;;9.83;;
14939;SDS011;11825;51.898;8.202;2023-08-17T14:13:22;12.50;;;10.53;;
14939;SDS011;11825;51.898;8.202;2023-08-17T14:18:28;11.00;;;9.97;;
14939;SDS011;11825;51.898;8.202;2023-08-17T14:23:33;10.83;;;9.83;;
14939;SDS011;11825;51.898;8.202;2023-08-17T14:28:35;10.20;;;9.00;;
14939;SDS011;11825;51.898;8.202;2023-08-17T14:33:54;10.57;;;9.63;;
14939;SDS011;11825;51.898;8.202;2023-08-17T14:38:59;8.43;;;7.53;;
14939;SDS011;11825;51.898;8.202;2023-08-17T14:44:05;10.40;;;8.70;;
14939;SDS011;11825;51.898;8.202;2023-08-17T14:49:16;10.00;;;8.40;;
14939;SDS011;11825;51.898;8.202;2023-08-17T14:54:27;8.20;;;7.10;;
14939;SDS011;11825;51.898;8.202;2023-08-17T14:59:34;11.80;;;9.20;;
14939;SDS011;11825;51.898;8.202;2023-08-17T15:04:41;8.87;;;7.53;;
14939;SDS011;11825;51.898;8.202;2023-08-17T15:09:50;9.43;;;8.33;;
14939;SDS011;11825;51.898;8.202;2023-08-17T15:15:13;8.17;;;7.27;;
14939;SDS011;11825;51.898;8.202;2023-08-17T15:20:38;8.97;;;7.87;;
14939;SDS011;11825;51.898;8.202;2023-08-17T15:25:44;10.47;;;7.37;;
14939;SDS011;11825;51.898;8.202;2023-08-17T15:31:02;7.90;;;7.13;;
14939;SDS011;11825;51.898;8.202;2023-08-17T15:36:11;8.97;;;8.10;;
14939;SDS011;11825;51.898;8.202;2023-08-17T15:41:29;9.77;;;8.73;;
14939;SDS011;11825;51.898;8.202;2023-08-17T15:53:04;8.03;;;6.07;;
14939;SDS011;11825;51.898;8.202;2023-08-17T15:58:13;30.07;;;25.43;;
14939;SDS011;11825;51.898;8.202;2023-08-17T16:03:21;7.27;;;5.83;;
14939;SDS011;11825;51.898;8.202;2023-08-17T16:08:36;12.67;;;5.53;;
14939;SDS011;11825;51.898;8.202;2023-08-17T16:13:49;6.50;;;5.90;;
14939;SDS011;11825;51.898;8.202;2023-08-17T16:18:58;5.90;;;5.30;;
14939;SDS011;11825;51.898;8.202;2023-08-17T16:24:09;7.00;;;6.00;;
14939;SDS011;11825;51.898;8.202;2023-08-17T16:29:24;13.60;;;11.50;;
14939;SDS011;11825;51.898;8.202;2023-08-17T16:34:41;8.17;;;7.17;;
14939;SDS011;11825;51.898;8.202;2023-08-17T16:39:46;6.63;;;6.03;;
14939;SDS011;11825;51.898;8.202;2023-08-17T16:44:51;5.33;;;4.87;;
14939;SDS011;11825;51.898;8.202;2023-08-17T16:49:59;6.63;;;5.90;;
14939;SDS011;11825;51.898;8.202;2023-08-17T16:55:16;8.83;;;6.27;;
14939;SDS011;11825;51.898;8.202;2023-08-17T17:00:29;5.80;;;5.30;;
14939;SDS011;11825;51.898;8.202;2023-08-17T17:11:04;5.63;;;4.87;;
14939;SDS011;11825;51.898;8.202;2023-08-17T17:16:29;8.43;;;4.90;;
14939;SDS011;11825;51.898;8.202;2023-08-17T17:21:47;9.57;;;5.90;;
14939;SDS011;11825;51.898;8.202;2023-08-17T17:38:31;8.37;;;6.17;;
14939;SDS011;11825;51.898;8.202;2023-08-17T17:43:42;7.47;;;5.30;;
14939;SDS011;11825;51.898;8.202;2023-08-17T17:48:51;8.77;;;5.70;;
14939;SDS011;11825;51.898;8.202;2023-08-17T17:53:55;7.30;;;5.93;;
14939;SDS011;11825;51.898;8.202;2023-08-17T18:10:04;7.07;;;6.33;;
14939;SDS011;11825;51.898;8.202;2023-08-17T18:15:17;6.53;;;5.13;;
14939;SDS011;11825;51.898;8.202;2023-08-17T18:20:25;5.43;;;4.37;;
14939;SDS011;11825;51.898;8.202;2023-08-17T18:38:31;5.77;;;4.93;;
14939;SDS011;11825;51.898;8.202;2023-08-17T18:43:45;7.53;;;4.63;;
14939;SDS011;11825;51.898;8.202;2023-08-17T18:49:08;6.37;;;5.00;;
14939;SDS011;11825;51.898;8.202;2023-08-17T18:54:34;6.40;;;5.10;;
14939;SDS011;11825;51.898;8.202;2023-08-17T18:59:55;5.30;;;4.37;;
14939;SDS011;11825;51.898;8.202;2023-08-17T19:05:06;5.57;;;4.50;;
14939;SDS011;11825;51.898;8.202;2023-08-17T19:17:18;6.90;;;5.27;;
14939;SDS011;11825;51.898;8.202;2023-08-17T19:28:45;8.07;;;5.47;;
14939;SDS011;11825;51.898;8.202;2023-08-17T19:34:10;7.43;;;5.13;;
14939;SDS011;11825;51.898;8.202;2023-08-17T19:39:38;7.10;;;5.27;;
14939;SDS011;11825;51.898;8.202;2023-08-17T19:44:50;5.93;;;5.43;;
14939;SDS011;11825;51.898;8.202;2023-08-17T19:50:01;7.03;;;5.40;;
14939;SDS011;11825;51.898;8.202;2023-08-17T19:55:14;6.17;;;5.50;;
14939;SDS011;11825;51.898;8.202;2023-08-17T20:00:16;6.87;;;6.10;;
14939;SDS011;11825;51.898;8.202;2023-08-17T20:11:55;7.57;;;6.87;;
14939;SDS011;11825;51.898;8.202;2023-08-17T20:16:57;7.20;;;6.57;;
14939;SDS011;11825;51.898;8.202;2023-08-17T20:22:01;9.03;;;7.77;;
14939;SDS011;11825;51.898;8.202;2023-08-17T20:39:49;9.17;;;7.03;;
14939;SDS011;11825;51.898;8.202;2023-08-17T20:44:50;8.77;;;6.77;;
14939;SDS011;11825;51.898;8.202;2023-08-17T21:39:54;11.40;;;10.30;;
14939;SDS011;11825;51.898;8.202;2023-08-17T21:45:16;11.90;;;10.70;;
14939;SDS011;11825;51.898;8.202;2023-08-17T21:57:21;14.20;;;10.93;;
14939;SDS011;11825;51.898;8.202;2023-08-17T22:40:05;15.97;;;12.57;;
14939;SDS011;11825;51.898;8.202;2023-08-17T22:46:04;18.87;;;14.13;;
14939;SDS011;11825;51.898;8.202;2023-08-17T22:51:07;18.40;;;13.27;;
14939;SDS011;11825;51.898;8.202;2023-08-17T22:56:19;17.43;;;14.13;;
14939;SDS011;11825;51.898;8.202;2023-08-17T23:01:21;18.67;;;12.87;;
14939;SDS011;11825;51.898;8.202;2023-08-17T23:06:23;17.70;;;13.97;;
14939;SDS011;11825;51.898;8.202;2023-08-17T23:11:30;17.13;;;12.67;;
14939;SDS011;11825;51.898;8.202;2023-08-17T23:16:34;19.97;;;14.17;;
14939;SDS011;11825;51.898;8.202;2023-08-17T23:21:44;20.37;;;14.03;;
14939;SDS011;11825;51.898;8.202;2023-08-17T23:26:46;16.17;;;12.97;;
14939;SDS011;11825;51.898;8.202;2023-08-17T23:31:51;17.70;;;13.43;;
14939;SDS011;11825;51.898;8.202;2023-08-17T23:36:55;18.07;;;12.83;;
14939;SDS011;11825;51.898;8.202;2023-08-17T23:41:59;16.17;;;13.40;;
14939;SDS011;11825;51.898;8.202;2023-08-17T23:47:04;16.53;;;13.33;;
14939;SDS011;11825;51.898;8.202;2023-08-17T23:52:06;19.73;;;14.33;;
14939;SDS011;11825;51.898;8.202;2023-08-17T23:57:08;18.80;;;13.10;;
